Ryukaku — JD2887 — position and weather

sailwx.info

Track history (hours):
 
Tides and Currents Weather Stations Pressure Air Temp Water Temp Dewpoint Dewpoint Depression Visibility Wind Speed Wind Dir Waves Ship Positions

Ryukaku

Last reported at 2018-Jul-07 08:03 UTC. Time now 2018-Jul-22 21:34 UTC.
Position N 33°44' E 135°04'.
Warning: this ship's position is 15 days out of date.

Length 74 m; draft 4 m.

Type: Cargo ship. MMSI: 431000913.

Date/timePositionNaut miles runAvg speedWind from/ knotsBaromVisibWave heightAir tempDewpointWater temp
2018-Jul-07 08:03N 33°44' E 135°04'111.5
2018-Jul-07 07:58N 33°44' E 135°03'510.5
2018-Jul-07 07:30N 33°47' E 134°58'23 0.9
2018-Jul-06 05:09N 34°06' E 134°42'510.3
2018-Jul-06 04:39N 34°11' E 134°40'210.3
2018-Jul-06 04:29N 34°12' E 134°40'910.0
2018-Jul-06 03:34N 34°18' E 134°31'111.2
2018-Jul-06 03:29N 34°18' E 134°30'511.4
2018-Jul-06 03:00N 34°20' E 134°24'  
2018-Jul-02 16:05N 34°18' E 134°32'2012.2
2018-Jul-02 14:28N 34°04' E 134°49'712.4
2018-Jul-02 13:53N 33°59' E 134°55'612.2
2018-Jul-02 13:21N 33°54' E 134°60'  
Track history (hours):
 
Tides and Currents Weather Stations Pressure Air Temp Water Temp Dewpoint Dewpoint Depression Visibility Wind Speed Wind Dir Waves Ship Positions

Ryukaku

Last reported at 2018-Jul-07 08:03 UTC. Time now 2018-Jul-22 21:34 UTC.
Position N 33°44' E 135°04'.
Warning: this ship's position is 15 days out of date.

Length 74 m; draft 4 m.

Type: Cargo ship. MMSI: 431000913.

Date/timePositionNaut miles runAvg speedWind from/ knotsBaromVisibWave heightAir tempDewpointWater temp
2018-Jul-07 08:03N 33°44' E 135°04'111.5
2018-Jul-07 07:58N 33°44' E 135°03'510.5
2018-Jul-07 07:30N 33°47' E 134°58'23 0.9
2018-Jul-06 05:09N 34°06' E 134°42'510.3
2018-Jul-06 04:39N 34°11' E 134°40'210.3
2018-Jul-06 04:29N 34°12' E 134°40'910.0
2018-Jul-06 03:34N 34°18' E 134°31'111.2
2018-Jul-06 03:29N 34°18' E 134°30'511.4
2018-Jul-06 03:00N 34°20' E 134°24'  
2018-Jul-02 16:05N 34°18' E 134°32'2012.2
2018-Jul-02 14:28N 34°04' E 134°49'712.4
2018-Jul-02 13:53N 33°59' E 134°55'612.2
2018-Jul-02 13:21N 33°54' E 134°60'  

Dump ship's entire track history